Sao Vicente Ferrer, Brazil
Current Conditions -  °F | °C
As of 11:00 AM on Thursday 18 Dec 2014 (Local Time) from SBKG Reporting Station
Broken Clouds Broken Clouds  
Wind Chill: 82°   Ceiling: 10000
Heat Index: 84°   Visibility: 6mi
Dew Point: 64°   Wind: 15mph
Humidity: 54%   Direction: 70°ENE
Pressure: 29.97"   Gusts: NA
Location:  7.59°S, 35.49°W
Report Text: SBKG 181400Z 07013KT 9999 SCT048 BKN100 28/18 Q1015
Loading
Personal Weather Stations






























Interactive Weather Map New forecast layout! Learn more

10-Day Weather Forecast

Advertisements
Track Severe Weather on mobile